createdAt,value
2019-03-31T00:00:04.710Z,11.33
2019-03-31T00:02:35.033Z,11.77
2019-03-31T00:05:05.359Z,11.77
2019-03-31T00:07:35.681Z,11.40
2019-03-31T00:12:45.419Z,12.50
2019-03-31T00:15:15.462Z,11.47
2019-03-31T00:17:45.488Z,11.53
2019-03-31T00:20:15.821Z,14.13
2019-03-31T00:22:45.844Z,11.93
2019-03-31T00:25:16.232Z,13.10
2019-03-31T00:27:46.271Z,11.13
2019-03-31T00:30:16.575Z,12.43
2019-03-31T00:32:46.597Z,12.50
2019-03-31T00:35:16.665Z,13.57
2019-03-31T00:37:47.025Z,13.70
2019-03-31T00:42:56.423Z,12.43
2019-03-31T00:45:26.570Z,13.67
2019-03-31T00:47:56.506Z,12.97
2019-03-31T00:53:05.909Z,13.37
2019-03-31T00:55:35.959Z,12.80
2019-03-31T00:58:05.998Z,13.80
2019-03-31T01:00:36.340Z,11.47
2019-03-31T01:03:06.643Z,13.33
2019-03-31T01:05:36.981Z,12.20
2019-03-31T01:08:07.282Z,12.47
2019-03-31T01:13:17.249Z,12.37
2019-03-31T01:18:26.874Z,12.27
2019-03-31T01:20:56.919Z,10.93
2019-03-31T01:23:26.960Z,12.13
2019-03-31T01:26:00.391Z,11.43
2019-03-31T01:28:27.593Z,12.23
2019-03-31T01:30:57.643Z,11.20
2019-03-31T01:33:27.691Z,12.33
2019-03-31T01:35:57.760Z,12.57
2019-03-31T01:38:27.805Z,11.87
2019-03-31T01:43:37.229Z,13.13
2019-03-31T01:46:07.303Z,11.80
2019-03-31T01:48:37.656Z,12.47
2019-03-31T01:51:08.072Z,12.03
2019-03-31T01:53:38.120Z,12.33
2019-03-31T01:56:08.507Z,12.67
2019-03-31T01:58:38.546Z,11.83
2019-03-31T02:01:08.969Z,12.40
2019-03-31T02:03:39.278Z,12.10
2019-03-31T02:06:09.328Z,12.40
2019-03-31T02:08:39.386Z,13.70
2019-03-31T02:11:09.428Z,13.20
2019-03-31T02:13:39.744Z,12.60
2019-03-31T02:16:09.792Z,13.83
2019-03-31T02:18:39.835Z,13.27
2019-03-31T02:21:10.206Z,13.17
2019-03-31T02:26:19.915Z,13.40
2019-03-31T02:28:50.327Z,12.80
2019-03-31T02:31:20.393Z,13.60
2019-03-31T02:33:50.425Z,13.03
2019-03-31T02:36:20.473Z,13.10
2019-03-31T02:38:50.504Z,12.43
2019-03-31T02:41:20.869Z,13.03
2019-03-31T02:43:50.904Z,13.43
2019-03-31T02:46:20.953Z,13.57
2019-03-31T02:48:50.986Z,12.47
2019-03-31T02:51:21.042Z,13.43
2019-03-31T02:53:51.364Z,14.20
2019-03-31T02:56:21.403Z,13.60
2019-03-31T02:58:51.799Z,13.17
2019-03-31T03:01:21.845Z,13.17
2019-03-31T03:03:51.907Z,14.93
2019-03-31T03:06:21.935Z,13.17
2019-03-31T03:08:51.980Z,12.50
2019-03-31T03:11:22.019Z,13.67
2019-03-31T03:13:52.051Z,13.57
2019-03-31T03:16:22.424Z,13.10
2019-03-31T03:18:52.474Z,13.90
2019-03-31T03:21:24.710Z,12.73
2019-03-31T03:23:52.581Z,14.03
2019-03-31T03:26:22.633Z,13.23
2019-03-31T03:28:52.662Z,14.23
2019-03-31T03:31:23.043Z,14.57
2019-03-31T03:33:53.073Z,13.47
2019-03-31T03:36:23.482Z,14.83
2019-03-31T03:38:53.510Z,14.07
2019-03-31T03:41:23.564Z,13.40
2019-03-31T03:43:56.327Z,14.67
2019-03-31T03:46:23.944Z,14.40
2019-03-31T03:48:54.024Z,14.47
2019-03-31T03:51:24.036Z,13.30
2019-03-31T03:53:54.084Z,12.90
2019-03-31T03:56:28.744Z,13.20
2019-03-31T03:58:54.173Z,13.53
2019-03-31T04:01:24.234Z,13.50
2019-03-31T04:03:54.273Z,13.27
2019-03-31T04:06:24.328Z,14.10
2019-03-31T04:08:54.683Z,13.97
2019-03-31T04:11:24.765Z,13.20
2019-03-31T04:13:54.828Z,13.67
2019-03-31T04:16:24.880Z,13.87
2019-03-31T04:18:54.924Z,13.80
2019-03-31T04:21:24.991Z,12.27
2019-03-31T04:23:55.026Z,13.20
2019-03-31T04:26:25.099Z,13.37
2019-03-31T04:28:55.106Z,13.23
2019-03-31T04:31:25.155Z,12.63
2019-03-31T04:33:55.202Z,13.57
2019-03-31T04:39:04.592Z,13.63
2019-03-31T04:44:14.356Z,13.17
2019-03-31T04:46:44.690Z,13.17
2019-03-31T04:49:14.719Z,13.50
2019-03-31T04:51:45.163Z,13.33
2019-03-31T04:54:15.206Z,13.70
2019-03-31T04:56:45.292Z,12.67
2019-03-31T04:59:15.686Z,14.37
2019-03-31T05:01:45.723Z,13.50
2019-03-31T05:04:16.128Z,13.77
2019-03-31T05:06:46.258Z,13.50
2019-03-31T05:11:55.593Z,15.00
2019-03-31T05:14:25.626Z,14.40
2019-03-31T05:16:55.665Z,13.50
2019-03-31T05:19:25.694Z,13.77
2019-03-31T05:21:56.059Z,13.77
2019-03-31T05:24:26.388Z,13.90
2019-03-31T05:26:56.445Z,13.73
2019-03-31T05:29:26.822Z,13.93
2019-03-31T05:31:57.141Z,13.57
2019-03-31T05:34:27.182Z,13.57
2019-03-31T05:36:57.229Z,14.43
2019-03-31T05:42:06.979Z,13.60
2019-03-31T05:44:37.111Z,13.03
2019-03-31T05:47:07.381Z,14.70
2019-03-31T05:49:37.420Z,13.97
2019-03-31T05:52:07.466Z,14.50
2019-03-31T05:54:37.516Z,13.77
2019-03-31T05:57:08.156Z,13.97
2019-03-31T05:59:38.194Z,13.83
2019-03-31T06:02:08.621Z,13.70
2019-03-31T06:04:38.653Z,13.90
2019-03-31T06:07:09.038Z,14.57
2019-03-31T06:12:18.543Z,13.93
2019-03-31T06:14:48.855Z,13.97
2019-03-31T06:17:19.240Z,13.47
2019-03-31T06:19:49.334Z,14.23
2019-03-31T06:22:19.689Z,14.57
2019-03-31T06:24:49.999Z,16.00
2019-03-31T06:27:20.069Z,15.17
2019-03-31T06:29:50.098Z,15.03
2019-03-31T06:32:20.142Z,15.40
2019-03-31T06:34:50.471Z,16.53
2019-03-31T06:37:20.520Z,16.23
2019-03-31T06:39:50.554Z,14.70
2019-03-31T06:42:20.931Z,15.90
2019-03-31T06:44:50.968Z,15.10
2019-03-31T06:47:21.015Z,15.73
2019-03-31T06:49:51.048Z,16.23
2019-03-31T06:52:21.092Z,16.37
2019-03-31T06:54:51.137Z,15.70
2019-03-31T06:57:21.521Z,16.73
2019-03-31T06:59:51.551Z,17.17
2019-03-31T07:02:21.997Z,15.80
2019-03-31T07:05:00.851Z,15.57
2019-03-31T07:07:23.995Z,16.50
2019-03-31T07:09:52.736Z,16.33
2019-03-31T07:12:23.070Z,15.67
2019-03-31T07:14:53.177Z,16.07
2019-03-31T07:17:23.285Z,18.53
2019-03-31T07:19:53.612Z,17.03
2019-03-31T07:22:24.466Z,16.23
2019-03-31T07:24:55.114Z,16.87
2019-03-31T07:27:25.523Z,17.33
2019-03-31T07:29:55.848Z,17.00
2019-03-31T07:32:26.241Z,17.13
2019-03-31T07:34:56.300Z,17.60
2019-03-31T07:37:26.440Z,17.30
2019-03-31T07:39:56.630Z,15.73
2019-03-31T07:42:27.030Z,15.10
2019-03-31T07:44:56.874Z,16.77
2019-03-31T07:47:26.920Z,16.43
2019-03-31T07:49:56.957Z,16.83
2019-03-31T07:52:27.296Z,16.20
2019-03-31T07:54:57.346Z,16.57
2019-03-31T08:02:46.613Z,17.67
2019-03-31T08:07:56.046Z,18.20
2019-03-31T08:10:26.090Z,17.73
2019-03-31T08:12:56.337Z,19.43
2019-03-31T08:18:06.453Z,20.57
2019-03-31T08:20:36.427Z,20.00
2019-03-31T08:23:06.480Z,19.87
2019-03-31T08:25:36.919Z,17.23
2019-03-31T08:28:07.344Z,18.27
2019-03-31T08:30:37.404Z,19.10
2019-03-31T08:33:07.462Z,19.13
2019-03-31T08:35:47.369Z,18.60
2019-03-31T08:38:07.986Z,17.00
2019-03-31T08:40:38.125Z,21.07
2019-03-31T08:43:08.072Z,18.43
2019-03-31T08:48:17.491Z,19.73
2019-03-31T08:53:26.902Z,19.37
2019-03-31T08:55:57.291Z,20.30
2019-03-31T08:58:27.354Z,20.83
2019-03-31T09:03:36.858Z,19.63
2019-03-31T09:06:06.902Z,19.43
2019-03-31T09:08:37.408Z,20.67
2019-03-31T09:11:07.714Z,20.07
2019-03-31T09:13:37.798Z,19.33
2019-03-31T09:16:07.835Z,20.53
2019-03-31T09:18:38.288Z,21.87
2019-03-31T09:23:48.242Z,21.30
2019-03-31T09:26:18.302Z,22.27
2019-03-31T09:28:48.683Z,23.50
2019-03-31T09:31:19.000Z,23.70
2019-03-31T09:33:49.320Z,24.17
2019-03-31T09:36:19.757Z,25.50
2019-03-31T09:38:49.820Z,24.73
2019-03-31T09:41:19.865Z,23.27
2019-03-31T09:43:50.207Z,23.77
2019-03-31T09:46:20.529Z,25.67
2019-03-31T09:48:50.904Z,26.77
2019-03-31T09:51:21.294Z,28.23
2019-03-31T09:53:51.347Z,25.47
2019-03-31T09:56:21.386Z,26.50
2019-03-31T09:58:51.444Z,26.97
2019-03-31T10:01:21.859Z,26.27
2019-03-31T10:03:52.306Z,26.63
2019-03-31T10:06:30.056Z,25.67
2019-03-31T10:08:53.215Z,27.17
2019-03-31T10:11:23.175Z,28.77
2019-03-31T10:13:53.241Z,29.13
2019-03-31T10:16:23.278Z,31.13
2019-03-31T10:18:53.717Z,31.57
2019-03-31T10:21:23.756Z,31.37
2019-03-31T10:23:53.819Z,31.07
2019-03-31T10:26:31.786Z,30.33
2019-03-31T10:28:53.909Z,31.77
2019-03-31T10:31:23.955Z,31.57
2019-03-31T10:33:54.015Z,32.03
2019-03-31T10:36:24.322Z,32.13
2019-03-31T10:38:54.400Z,31.33
2019-03-31T10:41:24.783Z,33.00
2019-03-31T10:43:55.188Z,31.93
2019-03-31T10:46:25.245Z,32.37
2019-03-31T10:48:55.620Z,32.13
2019-03-31T10:51:25.657Z,32.27
2019-03-31T10:53:55.726Z,31.87
2019-03-31T10:56:25.776Z,33.27
2019-03-31T10:58:55.845Z,31.97
2019-03-31T11:01:25.892Z,33.03
2019-03-31T11:03:55.942Z,33.43
2019-03-31T11:06:25.981Z,32.83
2019-03-31T11:08:56.036Z,30.57
2019-03-31T11:14:05.726Z,32.23
2019-03-31T11:19:15.127Z,31.80
2019-03-31T11:21:45.165Z,30.80
2019-03-31T11:24:15.501Z,31.20
2019-03-31T11:26:45.587Z,29.43
2019-03-31T11:29:15.959Z,31.47
2019-03-31T11:31:46.262Z,32.43
2019-03-31T11:34:19.504Z,32.77
2019-03-31T11:36:46.728Z,31.27
2019-03-31T11:41:56.532Z,32.03
2019-03-31T11:44:27.853Z,33.67
2019-03-31T11:46:56.638Z,30.90
2019-03-31T11:49:26.684Z,33.17
2019-03-31T11:51:56.804Z,32.50
2019-03-31T11:54:26.860Z,32.30
2019-03-31T11:56:56.907Z,30.50
2019-03-31T12:02:06.361Z,31.83
2019-03-31T12:04:36.767Z,32.93
2019-03-31T12:07:06.804Z,29.03
2019-03-31T12:09:36.851Z,31.73
2019-03-31T12:12:07.001Z,31.93
2019-03-31T12:14:37.190Z,25.30
2019-03-31T12:17:07.126Z,22.80
2019-03-31T12:19:37.175Z,23.00
2019-03-31T12:22:07.212Z,22.23
2019-03-31T12:24:37.260Z,19.73
2019-03-31T12:29:46.977Z,17.57
2019-03-31T12:32:17.022Z,20.57
2019-03-31T12:34:47.087Z,16.67
2019-03-31T12:37:17.393Z,20.17
2019-03-31T12:39:47.463Z,21.83
2019-03-31T12:44:56.894Z,21.73
2019-03-31T12:47:26.942Z,23.80
2019-03-31T12:49:56.988Z,26.20
2019-03-31T12:55:06.716Z,24.37
2019-03-31T13:00:16.123Z,25.20
2019-03-31T13:02:46.161Z,27.00
2019-03-31T13:05:16.208Z,26.10
2019-03-31T13:10:25.617Z,26.63
2019-03-31T13:12:56.003Z,26.30
2019-03-31T13:15:26.329Z,25.23
2019-03-31T13:20:35.732Z,23.57
2019-03-31T13:23:05.768Z,23.97
2019-03-31T13:25:35.823Z,22.27
2019-03-31T13:28:06.229Z,23.97
2019-03-31T13:30:36.185Z,20.80
2019-03-31T13:33:06.578Z,20.90
2019-03-31T13:35:37.009Z,21.80
2019-03-31T13:38:11.363Z,22.60
2019-03-31T13:40:37.505Z,20.37
2019-03-31T13:43:07.544Z,21.57
2019-03-31T13:45:37.611Z,22.07
2019-03-31T13:48:07.650Z,23.57
2019-03-31T13:50:37.696Z,22.20
2019-03-31T13:53:07.808Z,21.27
2019-03-31T13:58:19.025Z,23.07
2019-03-31T14:03:27.340Z,22.80
2019-03-31T14:05:57.664Z,22.33
2019-03-31T14:08:27.709Z,22.20
2019-03-31T14:13:37.118Z,20.70
2019-03-31T14:18:46.561Z,21.33
2019-03-31T14:21:16.913Z,21.17
2019-03-31T14:23:47.202Z,22.07
2019-03-31T14:28:59.419Z,20.53
2019-03-31T14:34:09.140Z,21.53
2019-03-31T14:39:18.551Z,23.03
2019-03-31T14:41:48.895Z,22.73
2019-03-31T14:44:18.930Z,21.53
2019-03-31T14:46:49.309Z,22.23
2019-03-31T14:49:19.635Z,20.97
2019-03-31T14:51:49.684Z,21.30
2019-03-31T14:54:19.996Z,20.53
2019-03-31T14:56:50.052Z,20.70
2019-03-31T14:59:20.091Z,19.00
2019-03-31T15:01:50.171Z,20.23
2019-03-31T15:04:20.550Z,19.17
2019-03-31T15:06:50.597Z,17.80
2019-03-31T15:12:00.026Z,18.00
2019-03-31T15:14:30.364Z,17.77
2019-03-31T15:22:19.554Z,17.50
2019-03-31T15:24:49.991Z,17.57
2019-03-31T15:27:20.385Z,17.83
2019-03-31T15:29:50.738Z,17.63
2019-03-31T15:32:21.030Z,17.03
2019-03-31T15:34:51.068Z,16.80
2019-03-31T15:37:21.378Z,16.10
2019-03-31T15:39:51.696Z,16.53
2019-03-31T15:42:21.764Z,15.97
2019-03-31T15:44:51.890Z,15.97
2019-03-31T15:47:21.908Z,16.30
2019-03-31T15:49:51.946Z,16.90
2019-03-31T15:52:22.278Z,15.60
2019-03-31T15:54:52.357Z,15.23
2019-03-31T15:57:22.403Z,16.50
2019-03-31T15:59:52.750Z,16.13
2019-03-31T16:02:22.793Z,16.17
2019-03-31T16:07:32.924Z,15.27
2019-03-31T16:10:03.240Z,14.40
2019-03-31T16:12:33.397Z,14.30
2019-03-31T16:15:03.324Z,15.87
2019-03-31T16:17:33.372Z,15.67
2019-03-31T16:22:43.097Z,14.93
2019-03-31T16:25:13.479Z,14.87
2019-03-31T16:27:43.804Z,15.00
2019-03-31T16:32:53.202Z,15.17
2019-03-31T16:35:23.580Z,15.27
2019-03-31T16:37:53.622Z,14.20
2019-03-31T16:40:24.008Z,13.87
2019-03-31T16:42:54.053Z,13.47
2019-03-31T16:48:03.456Z,12.20
2019-03-31T16:50:33.505Z,12.33
2019-03-31T16:53:03.565Z,12.37
2019-03-31T16:55:33.948Z,11.10
2019-03-31T16:58:03.993Z,11.57
2019-03-31T17:00:34.052Z,11.70
2019-03-31T17:03:04.121Z,10.60
2019-03-31T17:05:34.161Z,11.33
2019-03-31T17:10:43.897Z,9.83
2019-03-31T17:13:13.949Z,9.30
2019-03-31T17:15:43.982Z,9.70
2019-03-31T17:18:14.182Z,9.03
2019-03-31T17:20:44.535Z,9.27
2019-03-31T17:23:14.861Z,8.00
2019-03-31T17:25:44.899Z,8.97
2019-03-31T17:28:15.307Z,8.70
2019-03-31T17:30:45.612Z,8.37
2019-03-31T17:33:15.655Z,7.90
2019-03-31T17:35:45.965Z,8.47
2019-03-31T17:38:16.002Z,8.20
2019-03-31T17:40:46.047Z,7.80
2019-03-31T17:43:16.410Z,7.97
2019-03-31T17:45:46.488Z,7.60
2019-03-31T17:48:16.532Z,6.70
2019-03-31T17:50:46.602Z,7.47
2019-03-31T17:55:56.002Z,5.87
2019-03-31T17:58:26.038Z,6.67
2019-03-31T18:03:35.685Z,5.97
2019-03-31T18:06:05.731Z,5.53
2019-03-31T18:08:36.132Z,6.73
2019-03-31T18:11:06.550Z,6.00
2019-03-31T18:13:36.491Z,6.73
2019-03-31T18:18:46.542Z,6.13
2019-03-31T18:21:16.573Z,5.90
2019-03-31T18:23:46.629Z,6.63
2019-03-31T18:26:16.664Z,5.77
2019-03-31T18:34:05.443Z,6.30
2019-03-31T18:36:37.213Z,5.70
2019-03-31T18:39:06.335Z,5.80
2019-03-31T18:44:16.150Z,5.80
2019-03-31T18:46:46.185Z,6.53
2019-03-31T18:51:56.252Z,5.73
2019-03-31T18:54:26.290Z,5.47
2019-03-31T18:56:56.589Z,5.10
2019-03-31T18:59:26.909Z,5.30
2019-03-31T19:04:36.308Z,6.17
2019-03-31T19:07:06.346Z,5.87
2019-03-31T19:09:36.400Z,6.57
2019-03-31T19:12:06.418Z,5.93
2019-03-31T19:14:36.551Z,6.27
2019-03-31T19:17:06.853Z,6.00
2019-03-31T19:19:36.991Z,5.97
2019-03-31T19:22:07.015Z,6.13
2019-03-31T19:24:37.434Z,5.80
2019-03-31T19:27:07.450Z,6.67
2019-03-31T19:32:17.127Z,5.33
2019-03-31T19:34:47.197Z,5.83
2019-03-31T19:37:17.264Z,5.70
2019-03-31T19:42:27.009Z,6.00
2019-03-31T19:50:16.162Z,5.53
2019-03-31T19:52:46.207Z,5.93
2019-03-31T19:55:16.229Z,5.43
2019-03-31T19:57:46.648Z,6.13
2019-03-31T20:00:17.059Z,6.03
2019-03-31T20:02:47.384Z,5.90
2019-03-31T20:05:17.410Z,6.20
2019-03-31T20:10:26.813Z,6.33
2019-03-31T20:12:56.858Z,6.73
2019-03-31T20:15:26.883Z,7.23
2019-03-31T20:17:56.933Z,7.73
2019-03-31T20:20:27.322Z,8.27
2019-03-31T20:22:57.376Z,8.53
2019-03-31T20:25:27.424Z,7.20
2019-03-31T20:27:59.601Z,8.20
2019-03-31T20:30:27.508Z,8.03
2019-03-31T20:35:37.308Z,8.17
2019-03-31T20:40:46.709Z,8.87
2019-03-31T20:43:16.753Z,7.97
2019-03-31T20:45:46.778Z,7.53
2019-03-31T20:48:16.846Z,8.87
2019-03-31T20:50:47.168Z,8.63
2019-03-31T20:55:56.931Z,7.20
2019-03-31T20:58:27.243Z,7.23
2019-03-31T21:00:57.269Z,7.13
2019-03-31T21:06:06.679Z,7.23
2019-03-31T21:11:16.092Z,7.37
2019-03-31T21:13:46.129Z,6.90
2019-03-31T21:16:16.162Z,7.20
2019-03-31T21:24:04.913Z,6.50
2019-03-31T21:29:14.947Z,6.33
2019-03-31T21:31:44.977Z,6.67
2019-03-31T21:34:15.034Z,6.10
2019-03-31T21:36:45.413Z,6.60
2019-03-31T21:41:55.168Z,7.00
2019-03-31T21:44:25.587Z,7.90
2019-03-31T21:52:14.397Z,11.63
2019-03-31T21:54:44.424Z,8.53
2019-03-31T21:59:53.846Z,9.07
2019-03-31T22:02:23.919Z,11.13
2019-03-31T22:04:54.284Z,11.53
2019-03-31T22:10:04.042Z,10.37
2019-03-31T22:12:34.089Z,8.73
2019-03-31T22:17:43.805Z,7.77
2019-03-31T22:22:53.779Z,7.33
2019-03-31T22:28:03.176Z,7.27
2019-03-31T22:30:33.540Z,6.67
2019-03-31T22:33:03.565Z,6.30
2019-03-31T22:38:12.970Z,5.93
2019-03-31T22:40:43.013Z,6.57
2019-03-31T22:43:13.356Z,6.80
2019-03-31T22:45:43.676Z,6.47
2019-03-31T22:50:53.357Z,6.67
2019-03-31T22:53:23.656Z,6.70
2019-03-31T22:58:33.060Z,6.37
2019-03-31T23:03:42.823Z,6.83
2019-03-31T23:08:52.549Z,6.07
2019-03-31T23:11:22.945Z,5.80
2019-03-31T23:13:53.384Z,5.50
2019-03-31T23:16:23.453Z,5.60
2019-03-31T23:18:53.509Z,4.60
2019-03-31T23:21:23.555Z,5.30
2019-03-31T23:29:12.320Z,5.20
2019-03-31T23:31:42.355Z,4.10
2019-03-31T23:34:12.412Z,4.30
2019-03-31T23:39:22.097Z,4.63
2019-03-31T23:41:52.523Z,4.40
2019-03-31T23:44:22.569Z,4.77
2019-03-31T23:46:52.640Z,5.57
2019-03-31T23:49:22.994Z,4.30
2019-03-31T23:54:32.733Z,4.43
2019-03-31T23:57:02.767Z,4.40
2019-03-31T23:59:32.784Z,4.57
